x

Ocp1 - Ocean Crest Pier, Nc (ocpn7) Weather Station

3:47pm - Sat 20th Sep 2014 All times are EDT. -4 hours from GMT.

  • Wind
    16mph, 23mph gusts
  • Sea Temp 79°f
  • Air Temp 76°f
  • Sea Pressure 1014.1mb
  • Ocp1 - Ocean Crest Pier, Nc
  • Ocp1 - Ocean Crest Pier, Nc

More Historic Weather Station data

Upgrade to MSW Pro to gain access to the past 30 days of data for over 8000 Wavebouys and Weather Stations around the globe.

Join Pro

Comparision Forecast

View Surf forecast
   
Sat 09/20 3:47pm 16 23 mph 1014.1mb 79f 76f
3:32pm 15 22 mph 1014.4mb 79f 76f
3:17pm 13 16 mph 1014.5mb 79f 76f
3:02pm 10 15 mph 1014.6mb 79f 76f
2:47pm 11 16 mph 1014.9mb 79f 75f
2:32pm 10 15 mph 1015.3mb 79f 75f
2:17pm 14 18 mph 1015.6mb 79f 75f
2:02pm 11 16 mph 1016mb 79f 75f
1:47pm 13 17 mph 1016.2mb 79f 76f
1:32pm 11 21 mph 1016.4mb 79f 76f
1:17pm 11 17 mph 1016.4mb 79f 76f
1:02pm 15 24 mph 1016.6mb 80f 76f
12:47pm 15 20 mph 1016.7mb 80f 76f
12:32pm 14 21 mph 1016.9mb 80f 76f
12:17pm 14 17 mph 1017.1mb 80f 76f
12:02pm 13 18 mph 1017.3mb 80f 75f
11:47am 16 22 mph 1017.5mb 80f 75f
11:32am 14 18 mph 1017.6mb 80f 74f
11:17am 14 17 mph 1017.6mb 80f 74f
11:02am 11 15 mph 1017.7mb 80f 72f
10:47am 11 16 mph 1017.6mb 80f 72f
10:32am 10 16 mph 1017.5mb 80f 72f
10:17am 11 15 mph 1017.5mb 80f 71f
10:02am 11 17 mph 1017.5mb 80f 71f
9:47am 9 11 mph 1017.7mb 80f 70f
9:32am 9 13 mph 1017.8mb 80f 69f
9:17am 10 14 mph 1017.8mb 80f 69f
9:02am 10 16 mph 1017.8mb 80f 68f
8:47am 10 15 mph 1017.9mb 80f 68f
8:32am 14 20 mph 1017.9mb 80f 68f
8:17am 11 18 mph 1018.1mb 80f 67f
8:02am 9 20 mph 1018mb 80f 67f
7:47am 9 15 mph 1018mb 80f 67f
7:32am 10 15 mph 1018mb 80f 67f
7:17am 11 16 mph 1017.9mb 80f 67f
7:02am 13 16 mph 1017.8mb 80f 67f
6:47am 10 15 mph 1017.8mb 80f 67f
6:32am 11 16 mph 1017.9mb 80f 67f
6:17am 11 16 mph 1018mb 80f 68f
6:02am 13 16 mph 1018.1mb 80f 67f
5:47am 10 16 mph 1017.9mb 80f 68f
5:32am 11 15 mph 1017.7mb 80f 68f
5:17am 9 14 mph 1017.7mb 80f 68f
5:02am 11 15 mph 1017.7mb 80f 68f
4:47am 11 15 mph 1017.7mb 80f 68f
4:32am 9 13 mph 1017.8mb 80f 68f
4:17am 9 13 mph 1018mb 80f 68f
4:02am 8 13 mph 1018.1mb 80f 69f
3:47am 11 15 mph 1018.2mb 80f 69f
3:32am 10 14 mph 1018.4mb 80f 69f
3:17am 10 16 mph 1018.7mb 80f 69f
3:02am 10 14 mph 1018.9mb 80f 69f
2:47am 7 10 mph 1019.1mb 80f 70f
2:32am 7 10 mph 1019.1mb 80f 71f
2:17am 7 13 mph 1019.1mb 80f 71f
2:02am 11 15 mph 1019.3mb 80f 73f
1:47am 14 17 mph 1019.2mb 80f 74f
1:32am 13 16 mph 1019.4mb 80f 74f
1:17am 11 15 mph 1019.4mb 80f 75f
1:02am 14 18 mph 1019.3mb 80f 75f
12:47am 16 20 mph 1019.5mb 80f 75f
12:32am 13 15 mph 1019.6mb 80f 75f
12:17am 15 18 mph 1019.6mb 80f 75f
12:02am 14 20 mph 1019.6mb 80f 75f
Fri 09/19 11:47pm 14 18 mph 1019.7mb 80f 75f
11:32pm 18 23 mph 1019.5mb 80f 75f
11:17pm 15 20 mph 1019.9mb 80f 76f
11:02pm 20 23 mph 1019.7mb 80f 76f
10:47pm 18 22 mph 1019.7mb 80f 75f
10:32pm 15 20 mph 1019.8mb 80f 76f
10:17pm 14 18 mph 1019.7mb 80f 75f
10:02pm 15 20 mph 1019.6mb 80f 75f
9:47pm 20 28 mph 1019.4mb 80f 76f
9:32pm 17 24 mph 1019.5mb 80f 76f
9:17pm 16 24 mph 1019.5mb 80f 76f
9:02pm 18 25 mph 1019.4mb 80f 76f
8:47pm 15 20 mph 1019.5mb 80f 76f
8:32pm 11 16 mph 1019.4mb 80f 76f
7:47pm 14 20 mph 1019mb 80f 76f
7:32pm 11 16 mph 1018.8mb 80f 75f
7:17pm 13 16 mph 1019mb 80f 76f
7:02pm 15 17 mph 1018.9mb 80f 75f
6:47pm 11 16 mph 1018.9mb 81f 75f
6:32pm 9 11 mph 1018.8mb 81f 74f
6:17pm 11 15 mph 1018.7mb 81f 74f
6:02pm 10 15 mph 1018.8mb 81f 74f
5:47pm 14 22 mph 1018.7mb 81f 74f
5:32pm 21 25 mph 1018.6mb 81f 76f
5:17pm 17 26 mph 1018.5mb 81f 78f
5:02pm 15 17 mph 1018.5mb 81f 78f
4:47pm 18 23 mph 1018.5mb 81f 79f
4:32pm 15 22 mph 1018.5mb 81f 80f
4:17pm 15 21 mph 1018.6mb 81f 80f
4:02pm 17 20 mph 1018.5mb 81f 79f
3:47pm 13 15 mph 1018.4mb 81f 79f
3:32pm 11 14 mph 1018.4mb 81f 78f
3:17pm 15 17 mph 1018.4mb 81f 78f
3:02pm 22 28 mph 1018.1mb 81f 78f
2:47pm 17 22 mph 1018.2mb 81f 78f
2:32pm 13 16 mph 1018.5mb 81f 77f
2:17pm 17 22 mph 1018.4mb 81f 76f
2:02pm 20 24 mph 1018.4mb 81f 77f
1:47pm 25 32 mph 1018.1mb 81f 78f
1:32pm 20 23 mph 1018.5mb 81f 79f
1:17pm 16 23 mph 1018.8mb 81f 79f
1:02pm 20 26 mph 1018.7mb 81f 78f
12:47pm 17 22 mph 1018.8mb 81f 77f
12:32pm 18 24 mph 1018.7mb 81f 78f
12:17pm 20 25 mph 1018.7mb 81f 78f
12:02pm 17 21 mph 1018.7mb 81f 78f
11:47am 17 22 mph 1018.6mb 81f 78f
11:32am 16 20 mph 1018.7mb 81f 77f
11:17am 22 26 mph 1018.5mb 81f 77f
11:02am 14 24 mph 1018.8mb 81f 77f
10:47am 17 24 mph 1018.6mb 81f 77f
10:32am 17 21 mph 1018.3mb 81f 77f
10:17am 15 18 mph 1018.4mb 81f 77f
10:02am 15 21 mph 1018.2mb 81f 77f
9:47am 15 22 mph 1018.2mb 81f 76f
9:32am 9 15 mph 1018.1mb 81f 75f
9:17am 10 14 mph 1018.2mb 81f 73f
9:02am 9 11 mph 1018.2mb 81f 72f
8:47am 8 13 mph 1018.2mb 81f 72f
8:32am 9 13 mph 1018.1mb 81f 71f
8:17am 10 13 mph 1018mb 81f 70f
8:02am 10 13 mph 1017.9mb 80f 69f
7:47am 8 10 mph 1017.8mb 81f 68f
7:32am 9 13 mph 1017.5mb 81f 68f
7:17am 9 11 mph 1017.3mb 81f 67f
7:02am 8 10 mph 1017.1mb 81f 67f
6:47am 8 10 mph 1016.8mb 81f 67f
6:32am 9 10 mph 1016.7mb 81f 67f
6:17am 9 11 mph 1016.8mb 81f 67f
6:02am 8 10 mph 1016.7mb 81f 67f
5:47am 8 10 mph 1016.6mb 81f 67f
5:32am 8 9 mph 1016.5mb 81f 67f
5:17am 8 9 mph 1016.4mb 81f 67f
5:02am 9 11 mph 1016.1mb 81f 68f
4:47am 7 9 mph 1016.1mb 81f 68f
4:32am 8 10 mph 1016mb 81f 68f
4:17am 7 8 mph 1015.8mb 81f 69f
4:02am 7 9 mph 1015.7mb 81f 71f
3:47am 7 8 mph 1015.6mb 81f 72f
3:32am 7 8 mph 1015.5mb 81f 71f
3:17am 6 7 mph 1015.6mb 81f 71f
3:02am 6 7 mph 1015.7mb 81f 71f
2:47am 6 7 mph 1015.8mb 81f 71f
2:32am 6 7 mph 1015.8mb 81f 71f
2:17am 6 7 mph 1015.8mb 81f 71f
2:02am 6 7 mph 1015.7mb 81f 72f
1:47am 7 8 mph 1015.6mb 81f 72f
1:32am 6 7 mph 1015.7mb 81f 72f
1:17am 7
mph
1015.8mb 81f 72f
1:02am 5 7 mph 1015.8mb 81f 73f
12:32am 6 7 mph 1015.9mb 81f 74f
12:17am 7 9 mph 1015.9mb 81f 75f
12:02am 8 9 mph 1015.9mb 81f 75f
Thu 09/18 11:47pm 8 9 mph 1016mb 82f 75f
11:32pm 14 17 mph 1015.8mb 81f 76f
11:17pm 15 17 mph 1015.6mb 81f 76f
11:02pm 14 15 mph 1015.6mb 81f 76f
10:47pm 10 13 mph 1015.6mb 82f 76f
10:32pm 9 11 mph 1015.4mb 82f 76f
10:17pm 10 11 mph 1015.3mb 82f 76f
10:02pm 11 13 mph 1015.2mb 82f 76f
9:47pm 11 15 mph 1014.9mb 82f 76f
9:32pm 9 11 mph 1015.1mb 82f 75f
9:17pm 10 13 mph 1015mb 82f 76f
9:02pm 9 11 mph 1015mb 82f 75f
8:47pm 8 9 mph 1014.8mb 82f 75f
8:32pm 8 10 mph 1014.6mb 82f 75f
7:47pm 9 14 mph 1014.4mb 82f 76f
7:32pm 10 13 mph 1014.1mb 82f 76f
7:17pm 9 10 mph 1014mb 82f 76f
7:02pm 11 15 mph 1013.9mb 82f 77f
6:47pm 10 16 mph 1013.8mb 82f 77f
6:32pm 14 16 mph 1013.6mb 82f 77f
6:17pm 17 21 mph 1013.6mb 82f 77f
6:02pm 14 16 mph 1013.6mb 82f 78f
5:47pm 17 21 mph 1013.4mb 82f 78f
5:32pm 17 22 mph 1013.3mb 82f 78f
5:17pm 11 21 mph 1013.4mb 82f 78f
5:02pm 16 21 mph 1013.3mb 82f 78f
4:47pm 18 23 mph 1013.1mb 82f 78f
4:32pm 20 23 mph 1013mb 82f 78f
4:17pm 17 22 mph 1013mb 82f 78f
4:02pm 16 21 mph 1013.1mb 82f 78f
3:47pm 11 15 mph 1013.3mb 82f 77f
3:32pm 15 16 mph 1013.5mb 82f 76f
3:17pm 15 18 mph 1013.5mb 82f 77f
3:02pm 13 17 mph 1013.5mb 82f 77f
2:47pm 18 22 mph 1013.4mb 82f 77f
2:32pm 14 17 mph 1013.4mb 82f 78f
2:17pm 16 21 mph 1013.4mb 82f 79f
2:02pm 13 16 mph 1013.4mb 82f 79f
1:47pm 13 15 mph 1013.6mb 82f 79f
1:32pm 16 21 mph 1013.4mb 82f 79f
1:17pm 13 16 mph 1013.7mb 82f 79f
1:02pm 14 17 mph 1013.7mb 82f 79f
12:47pm 11 15 mph 1013.6mb 82f 79f
12:32pm 6 11 mph 1013.7mb 82f 80f
12:17pm 7 9 mph 1013.8mb 82f 79f
12:02pm 10 11 mph 1013.8mb 82f 78f
11:47am 7 9 mph 1013.9mb 82f 79f
11:32am 7 9 mph 1013.9mb 82f 78f
11:17am 7 8 mph 1013.9mb 82f 78f
11:02am 10 13 mph 1013.7mb 82f 78f
10:47am 8 11 mph 1013.6mb 82f 78f
10:32am 10 13 mph 1013.4mb 82f 77f
10:17am 7 11 mph 1013.4mb 82f 77f
10:02am 9 14 mph 1013.3mb 82f 76f
9:47am 11 14 mph 1013.2mb 82f 75f
9:32am 10 13 mph 1013.1mb 82f 74f
9:17am 9 11 mph 1012.9mb 82f 73f
9:02am 8 11 mph 1012.8mb 82f 72f
8:47am 7 10 mph 1012.7mb 81f 71f
8:32am 9 11 mph 1012.6mb 82f 69f
8:17am 9 11 mph 1012.6mb 81f 69f
8:02am 9 14 mph 1012.5mb 82f 69f
7:47am 9 13 mph 1012.5mb 81f 68f
7:32am 9 11 mph 1012.3mb 82f 68f
7:17am 10 11 mph 1012.1mb 81f 68f
7:02am 8 11 mph 1012mb 82f 68f
6:47am 10 13 mph 1011.8mb 82f 68f
6:32am 8 11 mph 1011.8mb 81f 68f
6:17am 7 10 mph 1011.8mb 81f 68f
6:02am 7 9 mph 1011.7mb 81f 68f
5:47am 7 10 mph 1011.5mb 82f 68f
5:32am 7 10 mph 1011.3mb 82f 68f
5:17am 8 11 mph 1011.2mb 82f 68f
5:02am 8 10 mph 1011.2mb 82f 68f
4:47am 8 10 mph 1011.2mb 82f 68f
4:32am 8 10 mph 1011.2mb 82f 68f
4:17am 7 9 mph 1011.1mb 82f 69f
4:02am 8 13 mph 1011.1mb 82f 69f
3:47am 6 8 mph 1011.2mb 82f 69f
3:32am 6 8 mph 1011.2mb 82f 69f
3:17am 7 9 mph 1011.2mb 82f 69f
3:02am 7 9 mph 1011.2mb 82f 69f
2:47am 7 10 mph 1011mb 82f 69f
2:32am 5 6 mph 1011.3mb 82f 69f
2:17am 5 7 mph 1011.3mb 82f 69f
2:02am 6 7 mph 1011.5mb 82f 70f
1:47am 6 8 mph 1011.6mb 82f 70f
1:32am 6 9 mph 1011.8mb 82f 70f
1:17am 8 11 mph 1011.8mb 82f 70f
1:02am 7 10 mph 1011.9mb 82f 70f
12:47am 9 11 mph 1011.9mb 82f 70f
12:32am 7 9 mph 1012.1mb 82f 71f
12:17am 7 9 mph 1012.3mb 82f 71f
12:02am 6 7 mph 1012.1mb 82f 71f
Wed 09/17 11:47pm 6 7 mph 1012.2mb 82f 70f
11:32pm 6 8 mph 1012mb 82f 70f
11:17pm 7 9 mph 1011.8mb 82f 70f
11:02pm 7 8 mph 1011.8mb 82f 70f
10:47pm 7 9 mph 1011.7mb 82f 70f
10:32pm 7 8 mph 1011.9mb 82f 69f
10:17pm 6 8 mph 1011.7mb 82f 69f
10:02pm 6 8 mph 1011.5mb 82f 69f
9:47pm 6 8 mph 1011.7mb 82f 69f
9:32pm 7 9 mph 1011.8mb 82f 70f
9:17pm 7 9 mph 1011.6mb 82f 70f
9:02pm 7 9 mph 1011.5mb 83f 70f
8:47pm 6 7 mph 1011.4mb 83f 70f
8:32pm 6 7 mph 1011.2mb 83f 71f
7:47pm 3 5 mph 1010.9mb 83f 71f
7:32pm 3
mph
1010.9mb 83f 72f
7:17pm 8 9 mph 1010.9mb 83f 71f
7:02pm 3 5 mph 1011.4mb 83f 70f
6:47pm 11 17 mph 1011.2mb 83f 70f
6:32pm 11 15 mph 1011mb 83f 71f
6:17pm 9 14 mph 1011mb 83f 73f
6:02pm 9 10 mph 1010.6mb 83f 78f
5:47pm 6 8 mph 1010.6mb 83f 77f
5:32pm 3 6 mph 1010.6mb 83f 77f
5:17pm 13 15 mph 1010.6mb 83f 79f
5:02pm 9 10 mph 1010.4mb 83f 80f
4:47pm 8 10 mph 1010.2mb 83f 80f
4:32pm 9 11 mph 1010.2mb 82f 80f
4:17pm 11 13 mph 1010.1mb 83f 79f
4:02pm 11 13 mph 1010.1mb 83f 80f
3:47pm 10 11 mph 1010.3mb 82f 80f
3:32pm 13 15 mph 1010.4mb 82f 80f
3:17pm 10 11 mph 1010.4mb 82f 80f
3:02pm 13 15 mph 1010.5mb 83f 79f
2:47pm 13 14 mph 1010.7mb 82f 80f
2:32pm 14 16 mph 1010.8mb 83f 80f
2:17pm 11 13 mph 1011.1mb 82f 80f
2:02pm 13 14 mph 1011.3mb 82f 79f
1:47pm 13 16 mph 1011.4mb 82f 79f
1:32pm 13 15 mph 1011.6mb 82f 80f
1:17pm 9 11 mph 1011.8mb 82f 80f
1:02pm 9 10 mph 1012mb 82f 80f
12:47pm 7 9 mph 1012.2mb 82f 81f
12:32pm 8 10 mph 1012.3mb 82f 80f
12:17pm 2
mph
1012.4mb 82f 81f
12:02pm 7 8 mph 1012.5mb 82f 80f
11:47am 5 8 mph 1012.5mb 82f 79f
11:32am 5 7 mph 1012.5mb 82f 79f
11:17am 5 7 mph 1012.5mb 81f 78f
11:02am 7 9 mph 1012.6mb 81f 77f
10:47am 9 11 mph 1012.6mb 81f 77f
10:32am 7 11 mph 1012.5mb 81f 76f
10:17am 7 10 mph 1012.6mb 81f 75f
10:02am 8 13 mph 1012.7mb 81f 74f
9:47am 10 14 mph 1012.6mb 81f 73f
9:32am 9 11 mph 1012.7mb 81f 73f
9:17am 8 13 mph 1012.9mb 81f 72f
9:02am 9 11 mph 1012.9mb 81f 71f
8:47am 8 11 mph 1012.8mb 81f 70f
8:32am 8 13 mph 1012.7mb 81f 69f
8:17am 8 13 mph 1012.7mb 80f 68f
8:02am 7 10 mph 1012.5mb 81f 67f
7:47am 8 11 mph 1012.3mb 81f 66f
7:32am 6 8 mph 1012.3mb 81f 66f
7:17am 8 10 mph 1012.5mb 81f 66f
7:02am 6 7 mph 1012.3mb 81f 66f
6:47am 6 8 mph 1012.2mb 81f 67f
6:32am 7 10 mph 1012.3mb 80f 67f
6:17am 7 9 mph 1012mb 80f 67f
6:02am 10 14 mph 1011.8mb 80f 67f
5:47am 9 14 mph 1011.7mb 80f 68f
5:32am 9 11 mph 1011.3mb 80f 68f
5:17am 8 9 mph 1011.2mb 80f 68f
5:02am 6 8 mph 1011.4mb 81f 68f
4:47am 9 10 mph 1011.5mb 80f 69f
4:32am 5 7 mph 1011.3mb 81f 69f
4:17am 5 6 mph 1011.7mb 81f 69f
4:02am 7 8 mph 1011.9mb 81f 69f
3:47am 7 10 mph 1011.9mb 81f 69f
3:32am 7 9 mph 1012.2mb 81f 69f
3:17am 10 11 mph 1012.6mb 81f 69f
3:02am 5 7 mph 1012.6mb 81f 70f
2:47am 6 8 mph 1013.1mb 81f 70f
2:32am 7 10 mph 1013.3mb 81f 71f
2:17am 9 14 mph 1013.5mb 81f 72f
2:02am 8 11 mph 1013.7mb 81f 72f
1:47am 7 9 mph 1013.7mb 81f 73f
1:32am 7 9 mph 1013.8mb 81f 73f
1:17am 6 8 mph 1013.6mb 81f 74f
1:02am 5 7 mph 1013.3mb 81f 74f
12:47am 5
mph
1013.2mb 81f 75f
12:32am 3 5 mph 1013.3mb 81f 76f
12:17am  -  1 mph 1013.5mb 81f 79f
12:02am 6 7 mph 1013.2mb 81f 79f
Tue 09/16 11:47pm 7 8 mph 1013.3mb 81f 80f
11:32pm 9 10 mph 1013.3mb 81f 79f
11:17pm 11 13 mph 1013.1mb 81f 79f
11:02pm 10 11 mph 1012.9mb 81f 79f
10:47pm 10 13 mph 1012.9mb 81f 79f
10:32pm 8 9 mph 1013.1mb 81f 79f
10:17pm 13 14 mph 1013.1mb 81f 79f
10:02pm 11 14 mph 1013.4mb 81f 79f
9:47pm 13 15 mph 1013.6mb 81f 79f
9:32pm 10 11 mph 1013.8mb 81f 79f
9:17pm 11 13 mph 1013.8mb 81f 79f
9:02pm 9 10 mph 1013.8mb 81f 79f
8:47pm 11 13 mph 1013.8mb 81f 79f
8:32pm 11 13 mph 1013.9mb 81f 79f